createdAt,value
2018-11-25T00:00:12.466Z,30.30
2018-11-25T00:02:41.102Z,33.23
2018-11-25T00:05:10.049Z,39.73
2018-11-25T00:07:38.753Z,35.43
2018-11-25T00:10:07.845Z,43.27
2018-11-25T00:12:36.522Z,60.53
2018-11-25T00:15:05.865Z,43.87
2018-11-25T00:17:34.527Z,46.40
2018-11-25T00:20:03.675Z,40.07
2018-11-25T00:22:32.306Z,47.20
2018-11-25T00:25:00.925Z,42.70
2018-11-25T00:27:29.558Z,34.23
2018-11-25T00:29:58.171Z,35.07
2018-11-25T00:32:26.818Z,30.27
2018-11-25T00:34:55.443Z,26.70
2018-11-25T00:37:24.077Z,48.50
2018-11-25T00:39:52.682Z,40.97
2018-11-25T00:42:21.334Z,49.83
2018-11-25T00:44:49.954Z,54.83
2018-11-25T00:47:18.610Z,44.87
2018-11-25T00:49:47.245Z,37.77
2018-11-25T00:52:15.902Z,33.47
2018-11-25T00:54:44.517Z,28.53
2018-11-25T00:57:13.153Z,32.80
2018-11-25T00:59:41.771Z,33.97
2018-11-25T01:02:10.428Z,31.70
2018-11-25T01:04:39.053Z,27.27
2018-11-25T01:07:07.710Z,33.30
2018-11-25T01:09:36.360Z,29.90
2018-11-25T01:12:05.238Z,38.00
2018-11-25T01:14:33.870Z,30.50
2018-11-25T01:17:02.511Z,31.00
2018-11-25T01:19:31.141Z,29.20
2018-11-25T01:21:59.771Z,24.63
2018-11-25T01:24:28.409Z,24.63
2018-11-25T01:26:57.058Z,28.60
2018-11-25T01:29:25.739Z,29.70
2018-11-25T01:31:54.396Z,26.37
2018-11-25T01:34:23.009Z,26.60
2018-11-25T01:36:51.646Z,38.83
2018-11-25T01:39:20.242Z,40.27
2018-11-25T01:41:48.870Z,27.93
2018-11-25T01:44:17.490Z,27.20
2018-11-25T01:46:46.115Z,35.27
2018-11-25T01:49:14.745Z,27.53
2018-11-25T01:51:43.375Z,30.30
2018-11-25T01:54:11.995Z,37.37
2018-11-25T01:56:40.684Z,34.63
2018-11-25T01:59:09.307Z,32.10
2018-11-25T02:01:37.954Z,37.40
2018-11-25T02:04:06.628Z,37.97
2018-11-25T02:06:35.268Z,41.83
2018-11-25T02:09:04.127Z,44.03
2018-11-25T02:11:32.762Z,34.97
2018-11-25T02:14:01.382Z,35.10
2018-11-25T02:16:30.040Z,31.07
2018-11-25T02:18:58.650Z,29.90
2018-11-25T02:21:27.287Z,30.00
2018-11-25T02:23:55.906Z,28.23
2018-11-25T02:26:24.596Z,33.50
2018-11-25T02:28:53.209Z,28.57
2018-11-25T02:31:21.872Z,32.83
2018-11-25T02:33:50.470Z,35.60
2018-11-25T02:36:19.101Z,29.30
2018-11-25T02:38:47.745Z,29.47
2018-11-25T02:41:16.383Z,27.83
2018-11-25T02:43:45.004Z,23.90
2018-11-25T02:46:13.643Z,33.50
2018-11-25T02:48:42.394Z,31.23
2018-11-25T02:51:11.015Z,28.83
2018-11-25T02:53:39.647Z,34.53
2018-11-25T02:56:08.282Z,31.70
2018-11-25T02:58:36.949Z,32.87
2018-11-25T03:01:07.404Z,29.63
2018-11-25T03:03:36.642Z,29.03
2018-11-25T03:06:05.628Z,29.37
2018-11-25T03:08:34.254Z,30.00
2018-11-25T03:11:02.890Z,30.63
2018-11-25T03:13:31.507Z,26.57
2018-11-25T03:16:00.191Z,34.60
2018-11-25T03:18:28.814Z,26.50
2018-11-25T03:20:57.458Z,29.10
2018-11-25T03:23:26.079Z,26.90
2018-11-25T03:25:54.726Z,28.80
2018-11-25T03:28:23.338Z,25.33
2018-11-25T03:30:51.979Z,25.90
2018-11-25T03:33:20.888Z,30.73
2018-11-25T03:35:49.529Z,27.93
2018-11-25T03:38:18.152Z,29.37
2018-11-25T03:40:46.817Z,29.20
2018-11-25T03:43:15.462Z,27.70
2018-11-25T03:45:44.092Z,28.47
2018-11-25T03:48:12.710Z,32.70
2018-11-25T03:50:41.354Z,32.87
2018-11-25T03:53:09.983Z,30.00
2018-11-25T03:55:38.622Z,35.47
2018-11-25T03:58:07.388Z,27.80
2018-11-25T04:00:36.039Z,26.77
2018-11-25T04:03:04.668Z,31.90
2018-11-25T04:05:33.363Z,31.50
2018-11-25T04:08:01.972Z,25.47
2018-11-25T04:10:30.619Z,25.23
2018-11-25T04:12:59.243Z,27.10
2018-11-25T04:15:27.938Z,31.50
2018-11-25T04:17:56.593Z,26.33
2018-11-25T04:20:25.246Z,26.80
2018-11-25T04:22:53.885Z,26.93
2018-11-25T04:25:22.572Z,29.80
2018-11-25T04:27:51.174Z,25.97
2018-11-25T04:30:20.438Z,27.33
2018-11-25T04:32:49.915Z,28.37
2018-11-25T04:35:18.553Z,30.70
2018-11-25T04:37:47.184Z,32.50
2018-11-25T04:40:16.601Z,46.00
2018-11-25T04:42:45.243Z,26.00
2018-11-25T04:45:14.587Z,28.93
2018-11-25T04:47:43.416Z,26.97
2018-11-25T04:50:14.910Z,29.70
2018-11-25T04:52:43.588Z,31.70
2018-11-25T04:55:12.283Z,28.53
2018-11-25T04:57:41.030Z,32.13
2018-11-25T05:00:13.098Z,29.57
2018-11-25T05:02:42.025Z,31.17
2018-11-25T05:05:11.666Z,30.87
2018-11-25T05:07:40.370Z,34.63
2018-11-25T05:10:12.139Z,28.20
2018-11-25T05:12:40.757Z,29.33
2018-11-25T05:15:17.838Z,29.87
2018-11-25T05:17:46.502Z,26.40
2018-11-25T05:20:15.654Z,29.93
2018-11-25T05:22:44.307Z,29.53
2018-11-25T05:25:14.014Z,24.53
2018-11-25T05:27:42.670Z,29.47
2018-11-25T05:30:13.427Z,26.33
2018-11-25T05:32:42.105Z,25.50
2018-11-25T05:35:11.854Z,28.40
2018-11-25T05:37:40.471Z,24.50
2018-11-25T05:40:11.671Z,24.60
2018-11-25T05:42:40.323Z,24.23
2018-11-25T05:45:15.665Z,27.23
2018-11-25T05:47:44.325Z,24.90
2018-11-25T05:50:14.675Z,26.47
2018-11-25T05:52:43.362Z,25.40
2018-11-25T05:55:12.526Z,25.60
2018-11-25T05:57:41.439Z,25.93
2018-11-25T06:00:15.290Z,21.40
2018-11-25T06:02:44.001Z,26.00
2018-11-25T06:05:12.751Z,29.67
2018-11-25T06:07:41.437Z,27.03
2018-11-25T06:10:11.953Z,27.00
2018-11-25T06:12:40.768Z,21.37
2018-11-25T06:15:13.100Z,26.10
2018-11-25T06:17:41.792Z,22.97
2018-11-25T06:20:11.793Z,27.33
2018-11-25T06:22:40.621Z,21.53
2018-11-25T06:25:10.607Z,21.40
2018-11-25T06:27:39.270Z,24.73
2018-11-25T06:30:11.676Z,23.63
2018-11-25T06:32:40.368Z,25.37
2018-11-25T06:35:10.326Z,21.10
2018-11-25T06:37:38.977Z,20.10
2018-11-25T06:40:12.706Z,21.97
2018-11-25T06:42:41.394Z,26.00
2018-11-25T06:45:15.580Z,24.23
2018-11-25T06:47:44.264Z,21.17
2018-11-25T06:50:13.337Z,15.33
2018-11-25T06:52:42.018Z,22.00
2018-11-25T06:55:11.826Z,20.37
2018-11-25T06:57:40.456Z,13.00
2018-11-25T07:00:17.338Z,18.90
2018-11-25T07:02:46.070Z,17.10
2018-11-25T07:05:14.874Z,18.97
2018-11-25T07:07:43.536Z,16.53
2018-11-25T07:10:15.843Z,18.17
2018-11-25T07:12:44.669Z,17.47
2018-11-25T07:15:14.447Z,19.90
2018-11-25T07:17:43.079Z,18.10
2018-11-25T07:20:12.689Z,17.07
2018-11-25T07:22:41.367Z,23.93
2018-11-25T07:25:13.209Z,17.10
2018-11-25T07:27:41.860Z,17.20
2018-11-25T07:30:25.874Z,14.97
2018-11-25T07:32:54.682Z,16.93
2018-11-25T07:35:24.197Z,20.13
2018-11-25T07:37:53.267Z,22.17
2018-11-25T07:40:22.525Z,16.00
2018-11-25T07:42:51.216Z,20.33
2018-11-25T07:45:20.842Z,19.60
2018-11-25T07:47:49.537Z,16.23
2018-11-25T07:50:18.197Z,13.53
2018-11-25T07:52:47.618Z,14.33
2018-11-25T07:55:18.094Z,20.40
2018-11-25T07:57:47.342Z,16.67
2018-11-25T08:00:20.591Z,19.93
2018-11-25T08:02:49.355Z,15.60
2018-11-25T08:05:20.799Z,19.03
2018-11-25T08:07:49.479Z,23.43
2018-11-25T08:10:18.136Z,20.27
2018-11-25T08:12:47.122Z,20.40
2018-11-25T08:15:17.413Z,19.93
2018-11-25T08:17:46.066Z,23.33
2018-11-25T08:20:17.557Z,20.90
2018-11-25T08:22:46.178Z,21.23
2018-11-25T08:25:16.759Z,18.80
2018-11-25T08:27:45.499Z,18.53
2018-11-25T08:30:18.030Z,19.43
2018-11-25T08:32:46.726Z,20.70
2018-11-25T08:35:15.984Z,26.40
2018-11-25T08:37:44.662Z,19.53
2018-11-25T08:40:16.138Z,22.43
2018-11-25T08:42:44.743Z,22.37
2018-11-25T08:45:14.002Z,19.30
2018-11-25T08:47:42.710Z,23.03
2018-11-25T08:50:12.998Z,25.23
2018-11-25T08:52:42.010Z,21.50
2018-11-25T08:55:13.770Z,20.00
2018-11-25T08:57:42.462Z,21.50
2018-11-25T09:00:15.163Z,24.20
2018-11-25T09:02:43.922Z,19.97
2018-11-25T09:05:13.559Z,26.40
2018-11-25T09:07:42.271Z,20.67
2018-11-25T09:10:16.722Z,19.20
2018-11-25T09:12:47.337Z,24.50
2018-11-25T09:15:17.036Z,25.40
2018-11-25T09:17:45.703Z,21.93
2018-11-25T09:20:16.293Z,21.57
2018-11-25T09:22:45.032Z,20.93
2018-11-25T09:25:16.604Z,25.13
2018-11-25T09:27:45.298Z,21.63
2018-11-25T09:30:23.660Z,22.50
2018-11-25T09:32:52.314Z,20.13
2018-11-25T09:35:20.977Z,20.10
2018-11-25T09:37:49.662Z,23.27
2018-11-25T09:40:19.341Z,20.83
2018-11-25T09:42:47.984Z,30.30
2018-11-25T09:45:17.566Z,23.50
2018-11-25T09:47:46.338Z,19.83
2018-11-25T09:50:17.791Z,23.93
2018-11-25T09:52:46.459Z,16.13
2018-11-25T09:55:17.029Z,22.87
2018-11-25T09:57:50.727Z,25.50
2018-11-25T10:00:21.327Z,20.90
2018-11-25T10:02:49.995Z,21.70
2018-11-25T10:05:18.699Z,25.23
2018-11-25T10:07:47.419Z,25.20
2018-11-25T10:10:17.142Z,21.40
2018-11-25T10:12:45.827Z,23.23
2018-11-25T10:15:16.368Z,27.83
2018-11-25T10:17:45.038Z,20.57
2018-11-25T10:20:17.531Z,16.87
2018-11-25T10:22:46.221Z,16.70
2018-11-25T10:25:15.546Z,17.50
2018-11-25T10:27:44.175Z,16.27
2018-11-25T10:30:14.082Z,17.73
2018-11-25T10:32:42.892Z,18.10
2018-11-25T10:35:11.911Z,18.47
2018-11-25T10:37:40.546Z,14.53
2018-11-25T10:40:16.720Z,20.33
2018-11-25T10:42:45.360Z,15.13
2018-11-25T10:45:18.740Z,15.20
2018-11-25T10:47:47.628Z,15.10
2018-11-25T10:50:18.193Z,19.93
2018-11-25T10:52:46.910Z,14.30
2018-11-25T10:55:16.504Z,18.20
2018-11-25T10:57:46.042Z,19.87
2018-11-25T11:00:22.754Z,17.10
2018-11-25T11:02:56.884Z,16.53
2018-11-25T11:05:30.912Z,17.20
2018-11-25T11:07:59.731Z,13.90
2018-11-25T11:10:28.409Z,16.43
2018-11-25T11:12:57.023Z,17.03
2018-11-25T11:15:25.674Z,13.97
2018-11-25T11:17:54.301Z,14.10
2018-11-25T11:20:23.111Z,12.13
2018-11-25T11:22:51.796Z,25.67
2018-11-25T11:25:20.909Z,17.20
2018-11-25T11:27:49.515Z,15.23
2018-11-25T11:30:18.154Z,15.30
2018-11-25T11:32:48.222Z,13.47
2018-11-25T11:35:16.873Z,14.30
2018-11-25T11:37:45.511Z,15.10
2018-11-25T11:40:15.044Z,18.07
2018-11-25T11:42:43.662Z,16.37
2018-11-25T11:45:13.262Z,19.43
2018-11-25T11:47:42.511Z,16.13
2018-11-25T11:50:13.273Z,18.63
2018-11-25T11:52:41.938Z,12.00
2018-11-25T11:55:11.751Z,15.33
2018-11-25T11:57:40.926Z,17.70
2018-11-25T12:00:18.563Z,16.70
2018-11-25T12:02:47.207Z,18.70
2018-11-25T12:05:15.890Z,15.17
2018-11-25T12:07:44.538Z,18.60
2018-11-25T12:10:14.202Z,15.00
2018-11-25T12:12:42.844Z,23.43
2018-11-25T12:15:15.030Z,15.60
2018-11-25T12:17:43.668Z,20.70
2018-11-25T12:20:12.490Z,21.73
2018-11-25T12:22:41.173Z,18.17
2018-11-25T12:25:13.935Z,17.90
2018-11-25T12:27:42.571Z,17.37
2018-11-25T12:30:12.332Z,17.37
2018-11-25T12:32:41.226Z,14.80
2018-11-25T12:35:10.921Z,21.67
2018-11-25T12:37:39.546Z,15.23
2018-11-25T12:40:10.691Z,18.73
2018-11-25T12:42:39.481Z,19.57
2018-11-25T12:45:10.101Z,14.60
2018-11-25T12:47:38.732Z,21.30
2018-11-25T12:50:10.245Z,13.17
2018-11-25T12:52:38.889Z,21.83
2018-11-25T12:55:10.194Z,17.10
2018-11-25T12:57:38.830Z,18.63
2018-11-25T13:00:25.633Z,19.10
2018-11-25T13:02:54.262Z,17.10
2018-11-25T13:05:22.931Z,21.20
2018-11-25T13:07:51.579Z,14.97
2018-11-25T13:10:20.211Z,18.30
2018-11-25T13:12:48.861Z,14.73
2018-11-25T13:15:17.483Z,12.80
2018-11-25T13:17:46.134Z,18.43
2018-11-25T13:20:15.518Z,14.60
2018-11-25T13:22:44.171Z,17.00
2018-11-25T13:25:16.391Z,15.17
2018-11-25T13:27:45.102Z,17.73
2018-11-25T13:30:21.647Z,15.83
2018-11-25T13:32:51.282Z,16.30
2018-11-25T13:35:19.908Z,17.30
2018-11-25T13:37:48.550Z,18.40
2018-11-25T13:40:17.498Z,18.40
2018-11-25T13:42:46.159Z,20.30
2018-11-25T13:45:14.806Z,14.67
2018-11-25T13:47:43.446Z,14.60
2018-11-25T13:50:12.728Z,16.30
2018-11-25T13:52:41.379Z,19.23
2018-11-25T13:55:13.066Z,18.77
2018-11-25T13:57:41.762Z,14.83
2018-11-25T14:00:18.534Z,14.53
2018-11-25T14:02:47.207Z,13.77
2018-11-25T14:05:16.080Z,15.30
2018-11-25T14:07:44.789Z,16.60
2018-11-25T14:10:17.342Z,15.70
2018-11-25T14:12:45.960Z,18.37
2018-11-25T14:15:14.590Z,16.00
2018-11-25T14:17:43.255Z,19.10
2018-11-25T14:20:11.874Z,23.43
2018-11-25T14:22:40.502Z,17.23
2018-11-25T14:25:11.896Z,21.03
2018-11-25T14:27:40.527Z,17.17
2018-11-25T14:30:13.638Z,19.77
2018-11-25T14:32:42.104Z,17.43
2018-11-25T14:35:12.228Z,17.97
2018-11-25T14:37:40.860Z,23.53
2018-11-25T14:40:11.905Z,19.20
2018-11-25T14:42:40.539Z,24.67
2018-11-25T14:45:10.851Z,22.90
2018-11-25T14:47:39.538Z,26.50
2018-11-25T14:50:15.038Z,16.33
2018-11-25T14:52:44.639Z,18.77
2018-11-25T14:55:14.045Z,21.47
2018-11-25T14:57:42.760Z,17.77
2018-11-25T15:00:21.440Z,24.37
2018-11-25T15:02:51.609Z,21.23
2018-11-25T15:05:29.707Z,20.87
2018-11-25T15:07:58.402Z,24.70
2018-11-25T15:10:27.051Z,19.93
2018-11-25T15:12:55.679Z,19.43
2018-11-25T15:15:24.354Z,12.90
2018-11-25T15:17:53.008Z,15.80
2018-11-25T15:20:22.352Z,12.17
2018-11-25T15:22:52.791Z,15.03
2018-11-25T15:25:25.047Z,14.43
2018-11-25T15:27:53.678Z,12.97
2018-11-25T15:30:22.566Z,12.60
2018-11-25T15:32:51.222Z,10.53
2018-11-25T15:35:20.903Z,14.50
2018-11-25T15:37:50.988Z,13.20
2018-11-25T15:40:22.527Z,11.07
2018-11-25T15:42:51.188Z,14.10
2018-11-25T15:45:19.937Z,15.93
2018-11-25T15:47:51.522Z,14.80
2018-11-25T15:50:24.674Z,14.90
2018-11-25T15:52:53.327Z,14.07
2018-11-25T15:55:22.252Z,13.00
2018-11-25T15:57:51.720Z,20.97
2018-11-25T16:00:20.775Z,14.73
2018-11-25T16:02:49.489Z,15.13
2018-11-25T16:05:19.655Z,19.60
2018-11-25T16:07:48.359Z,16.00
2018-11-25T16:10:17.017Z,15.90
2018-11-25T16:12:47.023Z,14.70
2018-11-25T16:15:16.899Z,17.30
2018-11-25T16:17:45.626Z,19.60
2018-11-25T16:20:16.333Z,21.50
2018-11-25T16:22:45.323Z,15.90
2018-11-25T16:25:17.754Z,15.43
2018-11-25T16:27:46.839Z,16.17
2018-11-25T16:30:15.459Z,15.00
2018-11-25T16:32:44.095Z,13.57
2018-11-25T16:35:12.730Z,13.17
2018-11-25T16:37:41.966Z,17.33
2018-11-25T16:40:12.166Z,14.67
2018-11-25T16:42:41.125Z,16.80
2018-11-25T16:45:12.220Z,13.63
2018-11-25T16:47:40.884Z,15.17
2018-11-25T16:50:24.518Z,12.07
2018-11-25T16:52:44.272Z,13.93
2018-11-25T16:55:13.687Z,17.23
2018-11-25T16:57:42.908Z,11.47
2018-11-25T17:00:18.258Z,12.80
2018-11-25T17:02:46.924Z,8.40
2018-11-25T17:05:18.739Z,12.47
2018-11-25T17:07:48.994Z,10.60
2018-11-25T17:10:17.623Z,11.53
2018-11-25T17:12:46.261Z,10.40
2018-11-25T17:15:16.571Z,9.43
2018-11-25T17:17:48.032Z,13.00
2018-11-25T17:20:16.655Z,10.50
2018-11-25T17:22:45.351Z,10.07
2018-11-25T17:25:14.526Z,12.80
2018-11-25T17:27:43.511Z,8.70
2018-11-25T17:30:14.086Z,11.13
2018-11-25T17:32:43.225Z,10.83
2018-11-25T17:35:17.118Z,10.73
2018-11-25T17:37:45.750Z,10.73
2018-11-25T17:40:14.400Z,9.33
2018-11-25T17:42:43.050Z,9.70
2018-11-25T17:45:12.728Z,14.93
2018-11-25T17:47:41.676Z,10.87
2018-11-25T17:50:22.014Z,11.00
2018-11-25T17:52:50.719Z,12.63
2018-11-25T17:55:20.315Z,12.10
2018-11-25T17:57:48.972Z,12.03
2018-11-25T18:00:24.049Z,14.53
2018-11-25T18:02:52.671Z,11.90
2018-11-25T18:05:21.297Z,14.43
2018-11-25T18:07:49.958Z,11.90
2018-11-25T18:10:18.631Z,8.80
2018-11-25T18:12:47.271Z,13.93
2018-11-25T18:15:18.244Z,11.70
2018-11-25T18:17:51.250Z,11.93
2018-11-25T18:20:19.879Z,16.30
2018-11-25T18:22:49.324Z,13.60
2018-11-25T18:25:17.943Z,15.00
2018-11-25T18:27:46.586Z,12.50
2018-11-25T18:30:16.806Z,12.73
2018-11-25T18:32:45.951Z,8.40
2018-11-25T18:35:14.573Z,10.60
2018-11-25T18:37:43.202Z,11.73
2018-11-25T18:40:13.119Z,14.00
2018-11-25T18:42:42.366Z,11.50
2018-11-25T18:45:12.490Z,8.60
2018-11-25T18:47:43.846Z,13.20
2018-11-25T18:50:13.648Z,9.50
2018-11-25T18:52:42.938Z,8.07
2018-11-25T18:55:10.313Z,8.83
2018-11-25T18:57:38.977Z,10.93
2018-11-25T19:00:11.815Z,8.97
2018-11-25T19:02:43.533Z,14.07
2018-11-25T19:05:12.199Z,11.23
2018-11-25T19:07:40.876Z,8.90
2018-11-25T19:10:13.919Z,14.40
2018-11-25T19:12:44.212Z,10.00
2018-11-25T19:15:12.488Z,11.60
2018-11-25T19:17:41.267Z,9.10
2018-11-25T19:20:40.591Z,10.53
2018-11-25T19:23:09.311Z,17.30
2018-11-25T19:25:37.950Z,11.57
2018-11-25T19:28:08.962Z,8.17
2018-11-25T19:30:37.614Z,10.30
2018-11-25T19:33:07.686Z,10.50
2018-11-25T19:35:36.312Z,17.03
2018-11-25T19:38:05.023Z,10.40
2018-11-25T19:40:33.790Z,11.23
2018-11-25T19:43:02.457Z,10.30
2018-11-25T19:45:31.082Z,10.80
2018-11-25T19:47:59.736Z,9.60
2018-11-25T19:50:33.419Z,10.07
2018-11-25T19:53:02.072Z,11.10
2018-11-25T19:55:30.739Z,9.20
2018-11-25T19:57:59.373Z,9.53
2018-11-25T20:00:28.261Z,9.93
2018-11-25T20:02:56.940Z,10.63
2018-11-25T20:05:25.566Z,12.30
2018-11-25T20:07:54.243Z,9.00
2018-11-25T20:10:24.163Z,8.67
2018-11-25T20:12:54.186Z,8.47
2018-11-25T20:15:22.863Z,8.17
2018-11-25T20:17:54.346Z,13.37
2018-11-25T20:20:21.600Z,10.03
2018-11-25T20:22:50.540Z,7.37
2018-11-25T20:25:19.460Z,11.40
2018-11-25T20:27:51.143Z,8.27
2018-11-25T20:30:23.601Z,7.50
2018-11-25T20:32:57.523Z,8.40
2018-11-25T20:35:26.298Z,8.47
2018-11-25T20:38:00.181Z,7.93
2018-11-25T20:40:28.850Z,8.93
2018-11-25T20:42:58.215Z,8.50
2018-11-25T20:45:38.558Z,8.33
2018-11-25T20:48:01.194Z,8.47
2018-11-25T20:50:29.837Z,10.00
2018-11-25T20:53:03.583Z,7.73
2018-11-25T20:55:32.224Z,10.07
2018-11-25T20:58:00.938Z,6.70
2018-11-25T21:00:30.500Z,8.70
2018-11-25T21:02:59.133Z,8.83
2018-11-25T21:05:27.796Z,8.20
2018-11-25T21:07:56.489Z,6.70
2018-11-25T21:10:26.174Z,7.43
2018-11-25T21:12:54.854Z,5.70
2018-11-25T21:15:23.474Z,10.13
2018-11-25T21:17:52.096Z,7.00
2018-11-25T21:20:23.183Z,6.83
2018-11-25T21:22:51.819Z,7.43
2018-11-25T21:25:21.664Z,7.23
2018-11-25T21:27:50.435Z,7.30
2018-11-25T21:30:27.560Z,7.77
2018-11-25T21:32:57.398Z,6.57
2018-11-25T21:35:26.058Z,10.27
2018-11-25T21:37:54.669Z,8.60
2018-11-25T21:40:24.342Z,6.00
2018-11-25T21:42:59.458Z,10.43
2018-11-25T21:45:28.079Z,7.43
2018-11-25T21:47:57.991Z,6.80
2018-11-25T21:50:26.619Z,8.30
2018-11-25T21:52:55.231Z,5.70
2018-11-25T21:55:24.195Z,6.97
2018-11-25T21:57:52.811Z,8.47
2018-11-25T22:00:22.611Z,7.70
2018-11-25T22:02:51.240Z,10.43
2018-11-25T22:05:20.056Z,10.10
2018-11-25T22:07:48.611Z,9.73
2018-11-25T22:10:18.360Z,9.90
2018-11-25T22:12:47.206Z,8.50
2018-11-25T22:15:17.625Z,7.33
2018-11-25T22:17:46.291Z,8.70
2018-11-25T22:20:15.620Z,10.63
2018-11-25T22:22:44.270Z,14.00
2018-11-25T22:25:13.997Z,8.00
2018-11-25T22:27:42.654Z,10.97
2018-11-25T22:30:16.023Z,10.57
2018-11-25T22:32:44.675Z,11.17
2018-11-25T22:35:14.321Z,12.67
2018-11-25T22:37:43.016Z,11.93
2018-11-25T22:40:12.765Z,11.63
2018-11-25T22:42:42.153Z,12.57
2018-11-25T22:45:12.679Z,13.70
2018-11-25T22:47:41.321Z,14.10
2018-11-25T22:50:11.342Z,13.70
2018-11-25T22:52:39.998Z,13.03
2018-11-25T22:55:14.870Z,11.93
2018-11-25T22:57:43.612Z,14.43
2018-11-25T23:00:43.770Z,13.83
2018-11-25T23:03:12.379Z,14.50
2018-11-25T23:05:51.961Z,10.20
2018-11-25T23:08:20.586Z,13.40
2018-11-25T23:10:49.238Z,13.27
2018-11-25T23:13:17.881Z,16.37
2018-11-25T23:15:46.523Z,15.20
2018-11-25T23:18:15.134Z,15.20
2018-11-25T23:20:43.756Z,14.30
2018-11-25T23:23:12.367Z,15.00
2018-11-25T23:25:41.002Z,16.20
2018-11-25T23:28:09.636Z,19.37
2018-11-25T23:30:38.274Z,16.47
2018-11-25T23:33:06.919Z,16.77
2018-11-25T23:35:35.683Z,20.40
2018-11-25T23:38:04.295Z,17.00
2018-11-25T23:40:32.954Z,19.30
2018-11-25T23:43:01.570Z,16.13
2018-11-25T23:45:30.193Z,16.17
2018-11-25T23:47:58.828Z,20.93
2018-11-25T23:50:27.513Z,17.57
2018-11-25T23:52:56.166Z,19.47
2018-11-25T23:55:24.932Z,20.13
2018-11-25T23:57:53.555Z,19.53
